Latest Weather Observations for Fortescue Dave Forrest

IDW60801

Issued at 12:35 pm WST Thursday 28 August 2014 (issued every 30 minutes, with the page automatically refreshed every 10 minutes)

About weather observations | Map of weather stations | Latest weather observations for WA | Other Formats
Station Details ID: 505056 Name: FORTESCUE DAVE FORREST Lat: -22.29 Lon: 119.43 Height: 474.6 m
Data from the previous 72 hours. | See also: Recent months for locations in Western Australia
Date/Time
WST
Temp
°C
App
Temp
°C
Dew
Point
Rel
Hum
%
Delta-T
°C
Wind Press
QNH
hPa
Press
MSL
hPa
Rain
since 9 am
mm
Dir
 
Spd
km/h
Gust
km/h
Spd
kts
Gust
kts
28/12:30pm 28.7 23.8 -6.7 9 15.2 ESE 11 20 6 11 1018.9 1017.7 0.0
28/12:00pm 27.9 21.9 -6.7 10 14.7 NNE 17 32 9 17 1019.4 1018.3 0.0
28/11:30am 27.6 21.2 -6.7 10 14.6 NNE 19 28 10 15 1019.8 1018.7 0.0
28/11:00am 27.8 23.0 -6.4 10 14.6 N 11 44 6 24 1020.2 1019.0 0.0
28/10:30am 26.9 20.9 -6.7 10 14.2 ENE 17 35 9 19 1020.4 1019.2 0.0
28/10:00am 27.0 20.5 -6.1 11 14.1 ENE 20 30 11 16 1020.5 1019.3 0.0
28/09:30am 26.0 19.5 -5.6 12 13.5 ENE 20 32 11 17 1020.6 1019.4 0.0
28/09:00am 25.7 19.2 -5.5 12 13.3 ENE 20 33 11 18 1020.6 1019.4 0.0
28/08:30am 22.9 19.4 -2.5 18 11.2 ESE 6 7 3 4 1020.7 1019.5 0.0
28/08:00am 18.6 15.5 -2.5 24 9.0 E 4 6 2 3 1020.6 1019.4 0.0
28/07:30am 16.8 14.0 -2.9 26 8.2 ENE 2 4 1 2 1020.5 1019.3 0.0
28/07:00am 13.2 10.1 -2.5 33 6.3 ESE 4 6 2 3 1020.3 1019.1 0.0
28/06:30am 11.6 8.5 -2.7 36 5.7 E 4 4 2 2 1020.0 1018.9 0.0
28/06:00am 12.1 8.4 -3.1 34 6.0 SE 7 7 4 4 1019.8 1018.7 0.0
28/05:30am 13.3 10.1 -3.3 31 6.6 SSE 4 7 2 4 1019.6 1018.5 0.0
28/05:00am 14.3 11.1 -3.5 29 7.1 SE 4 6 2 3 1019.2 1018.1 0.0
28/04:30am 16.0 12.3 -4.9 23 8.2 NE 6 7 3 4 1019.0 1017.8 0.0
28/04:00am 17.5 13.8 -5.0 21 9.0 NE 6 11 3 6 1018.8 1017.6 0.0
28/03:30am 17.6 12.9 -4.9 21 9.0 E 11 15 6 8 1018.7 1017.5 0.0
28/03:00am 18.3 12.8 -5.1 20 9.4 E 15 17 8 9 1018.6 1017.4 0.0
28/02:30am 17.9 13.2 -5.3 20 9.3 E 11 17 6 9 1018.7 1017.5 0.0
28/02:00am 18.8 13.7 -5.4 19 9.7 E 13 19 7 10 1018.8 1017.6 0.0
28/01:30am 17.1 12.8 -5.0 21 8.8 ENE 9 15 5 8 1018.9 1017.7 0.0
28/01:00am 16.8 12.9 -4.9 22 8.6 ENE 7 11 4 6 1019.1 1018.0 0.0
28/12:30am 17.2 13.3 -4.7 22 8.8 E 7 9 4 5 1019.3 1018.2 0.0
28/12:00am 16.3 13.4 -4.3 24 8.2 E 2 6 1 3 1019.5 1018.4 0.0
 
Date/Time
WST
Temp
°C
App
Temp
°C
Dew
Point
Rel
Hum
%
Delta-T
°C
Wind Press
QNH
hPa
Press
MSL
hPa
Rain
since 9 am
mm
Dir
 
Spd
km/h
Gust
km/h
Spd
kts
Gust
kts
27/11:30pm 16.5 12.6 -4.6 23 8.4 ENE 7 11 4 6 1019.8 1018.7 0.0
27/11:00pm 17.1 13.4 -4.4 22 8.6 E 6 9 3 5 1019.9 1018.8 0.0
27/10:30pm 17.9 14.6 -4.5 21 9.1 E 4 7 2 4 1020.3 1019.1 0.0
27/10:00pm 18.2 14.5 -4.6 21 9.2 ENE 6 7 3 4 1020.2 1019.0 0.0
27/09:30pm 18.6 15.4 -3.7 21 9.3 E 4 6 2 3 1020.2 1019.0 0.0
27/09:00pm 19.3 15.6 -4.2 20 9.7 E 6 6 3 3 1020.0 1018.9 0.0
27/08:30pm 19.6 16.4 -3.2 21 9.7 E 4 7 2 4 1019.9 1018.8 0.0
27/08:00pm 19.6 16.8 -3.0 21 9.6 ESE 2 4 1 2 1019.7 1018.6 0.0
27/07:30pm 21.0 17.8 -3.9 18 10.5 ENE 4 7 2 4 1019.2 1018.1 0.0
27/07:00pm 21.9 18.3 -3.9 17 11.0 ENE 6 7 3 4 1018.9 1017.7 0.0
27/06:30pm 22.9 19.3 -3.7 16 11.5 E 6 7 3 4 1018.4 1017.2 0.0
27/06:00pm 24.8 20.6 -4.2 14 12.6 E 9 11 5 6 1018.1 1016.9 0.0
27/05:30pm 26.8 22.5 -4.6 12 13.8 E 9 15 5 8 1017.8 1016.7 0.0
27/05:00pm 27.6 22.6 -4.7 11 14.2 ESE 13 19 7 10 1017.6 1016.5 0.0
27/04:30pm 27.8 23.1 -4.6 11 14.4 E 11 19 6 10 1017.6 1016.5 0.0
27/04:00pm 28.2 23.2 -4.4 11 14.5 ENE 13 22 7 12 1017.5 1016.4 0.0
27/03:30pm 28.9 25.2 -4.3 11 14.9 NW 6 19 3 10 1017.6 1016.5 0.0
27/03:00pm 28.1 21.7 -4.5 11 14.5 NE 20 26 11 14 1017.6 1016.5 0.0
27/02:30pm 28.4 23.8 -4.3 11 14.6 E 11 26 6 14 1017.7 1016.6 0.0
27/02:00pm 28.1 23.1 -4.1 12 14.4 N 13 20 7 11 1018.0 1016.8 0.0
27/01:30pm 28.5 23.1 -4.3 11 14.7 ENE 15 30 8 16 1018.3 1017.1 0.0
27/01:00pm 27.6 22.3 -4.0 12 14.1 NNE 15 24 8 13 1018.7 1017.5 0.0
27/12:30pm 27.8 21.7 -4.1 12 14.3 ESE 19 30 10 16 1019.2 1018.1 0.0
27/12:00pm 27.8 21.1 -3.8 12 14.2 E 22 32 12 17 1019.8 1018.7 0.0
27/11:30am 26.8 20.7 -4.3 12 13.7 NNE 19 32 10 17 1020.4 1019.2 0.0
27/11:00am 26.9 20.1 -4.7 12 13.8 NE 22 33 12 18 1020.8 1019.6 0.0
27/10:30am 26.8 20.2 -3.4 13 13.6 NE 22 33 12 18 1021.2 1020.1 0.0
27/10:00am 26.1 19.1 -3.2 14 13.1 ENE 24 33 13 18 1021.4 1020.3 0.0
27/09:30am 25.4 18.4 -3.3 15 12.8 ENE 24 33 13 18 1021.5 1020.4 0.0
27/09:00am 24.0 18.0 -3.0 16 11.9 E 19 26 10 14 1021.6 1020.5 0.0
27/08:30am 19.5 16.2 -0.9 25 9.0 ESE 6 9 3 5 1021.6 1020.5 0.0
27/08:00am 16.2 13.0 -0.7 31 7.3 ESE 6 7 3 4 1021.3 1020.2 0.0
27/07:30am 14.4 11.9 -1.1 34 6.5 ENE 2 6 1 3 1021.0 1019.9 0.0
27/07:00am 11.8 9.3 -1.1 41 5.3 WSW 2 6 1 3 1020.7 1019.5 0.0
27/06:30am 11.1 8.1 -2.1 39 5.3 S 4 6 2 3 1020.4 1019.2 0.0
27/06:00am 11.0 8.4 -1.4 42 5.0 SSE 2 6 1 3 1020.0 1018.9 0.0
27/05:30am 11.2 8.6 -1.7 40 5.2 S 2 6 1 3 1019.6 1018.5 0.0
27/05:00am 12.2 9.7 -1.3 39 5.5 W 2 4 1 2 1019.3 1018.2 0.0
27/04:30am 12.2 9.6 -1.5 38 5.6 SSE 2 9 1 5 1019.1 1018.0 0.0
27/04:00am 14.5 11.3 -3.5 28 7.2 E 4 6 2 3 1018.9 1017.7 0.0
27/03:30am 13.0 10.2 -3.0 33 6.4 NNE 2 4 1 2 1019.0 1017.8 0.0
27/03:00am 14.8 11.6 -3.8 27 7.4 ESE 4 6 2 3 1019.0 1017.8 0.0
27/02:30am 15.5 12.7 -3.4 27 7.7 S 2 4 1 2 1019.1 1018.0 0.0
27/02:00am 15.4 11.8 -3.4 27 7.6 ENE 6 9 3 5 1019.2 1018.1 0.0
27/01:30am 16.1 13.0 -3.0 27 7.9 E 4 7 2 4 1019.2 1018.1 0.0
27/01:00am 16.5 13.4 -2.6 27 7.9 E 4 6 2 3 1019.4 1018.3 0.0
27/12:30am 17.8 14.2 -3.8 22 8.9 ENE 6 7 3 4 1019.7 1018.6 0.0
27/12:00am 17.4 14.2 -3.4 24 8.6 NE 4 6 2 3 1019.9 1018.8 0.0
 
Date/Time
WST
Temp
°C
App
Temp
°C
Dew
Point
Rel
Hum
%
Delta-T
°C
Wind Press
QNH
hPa
Press
MSL
hPa
Rain
since 9 am
mm
Dir
 
Spd
km/h
Gust
km/h
Spd
kts
Gust
kts
26/11:30pm 17.5 13.9 -3.7 23 8.7 E 6 7 3 4 1020.0 1018.9 0.0
26/11:00pm 16.7 13.5 -3.1 25 8.2 NE 4 7 2 4 1020.2 1019.0 0.0
26/10:30pm 17.9 14.4 -3.1 23 8.8 ENE 6 9 3 5 1020.4 1019.2 0.0
26/10:00pm 18.1 14.3 -3.4 23 8.9 ESE 7 9 4 5 1020.5 1019.3 0.0
26/09:30pm 18.8 15.2 -3.4 22 9.3 E 6 7 3 4 1020.6 1019.4 0.0
26/09:00pm 19.8 16.2 -3.5 20 9.8 ENE 6 7 3 4 1020.5 1019.3 0.0
26/08:30pm 20.4 16.8 -3.6 19 10.2 ENE 6 7 3 4 1020.4 1019.2 0.0
26/08:00pm 20.5 16.9 -3.5 19 10.2 ENE 6 7 3 4 1020.3 1019.1 0.0
26/07:30pm 20.6 16.9 -3.1 20 10.2 ENE 7 9 4 5 1020.2 1019.0 0.0
26/07:00pm 21.3 17.6 -3.1 19 10.5 ENE 7 9 4 5 1019.7 1018.6 0.0
26/06:30pm 23.2 19.1 -3.2 17 11.5 ENE 9 11 5 6 1019.3 1018.2 0.0
26/06:00pm 24.6 20.4 -3.5 15 12.3 E 9 11 5 6 1019.0 1017.8 0.0
26/05:30pm 26.7 21.7 -3.9 13 13.6 ENE 13 19 7 10 1018.6 1017.4 0.0
26/05:00pm 27.4 21.3 -3.5 13 13.9 ENE 19 24 10 13 1018.5 1017.3 0.0
26/04:30pm 27.7 21.4 -3.8 12 14.1 E 20 28 11 15 1018.5 1017.3 0.0
26/04:00pm 28.1 23.5 -4.3 11 14.4 E 11 28 6 15 1018.5 1017.3 0.0
26/03:30pm 28.5 23.9 -4.2 11 14.7 ENE 11 19 6 10 1018.5 1017.3 0.0
26/03:00pm 27.9 22.9 -4.3 12 14.3 NNE 13 20 7 11 1018.6 1017.4 0.0
26/02:30pm 27.9 22.9 -4.2 12 14.3 ENE 13 22 7 12 1019.0 1017.8 0.0
26/02:00pm 28.8 23.9 -3.8 11 14.7 E 13 24 7 13 1019.3 1018.2 0.0
26/01:30pm 28.4 24.2 -3.9 12 14.6 ESE 9 28 5 15 1019.5 1018.4 0.0
26/01:00pm 27.6 22.5 -4.8 11 14.2 ENE 13 20 7 11 1019.9 1018.8 0.0
26/12:30pm 27.3 22.3 -4.5 12 14.1 ENE 13 20 7 11 1020.7 1019.5 0.0
26/12:00pm 27.3 21.1 -4.5 12 14.0 E 19 30 10 16 1021.3 1020.2 0.0
26/11:30am 27.6 20.9 -4.3 12 14.2 ESE 22 35 12 19 1021.9 1020.8 0.0
26/11:00am 26.6 19.9 -4.0 13 13.5 ENE 22 33 12 18 1022.5 1021.3 0.0
26/10:30am 26.5 19.7 -5.1 12 13.7 ENE 22 33 12 18 1022.7 1021.6 0.0
26/10:00am 26.3 18.5 -3.7 13 13.3 ENE 28 37 15 20 1022.9 1021.8 0.0
26/09:30am 25.8 18.9 -3.0 15 12.9 E 24 33 13 18 1023.1 1022.0 0.0
26/09:00am 24.2 18.1 -2.7 16 11.9 ENE 20 30 11 16 1023.2 1022.1 0.0
26/08:30am 20.0 16.7 -1.6 23 9.5 ESE 6 7 3 4 1023.5 1022.4 0.0
26/08:00am 16.7 13.7 -2.0 28 7.9 SE 4 6 2 3 1023.5 1022.4 0.0
26/07:30am 13.5 10.8 -2.5 33 6.5 W 2 4 1 2 1023.3 1022.2 0.0
26/07:00am 11.3 8.6 -2.1 39 5.3 NW 2 6 1 3 1023.1 1022.0 0.0
26/06:30am 10.0 7.3 -2.4 42 4.9 NW 2 6 1 3 1022.8 1021.7 0.0
26/06:00am 11.3 7.8 -2.7 37 5.5 S 6 11 3 6 1022.4 1021.2 0.0
26/05:30am 11.4 8.3 -2.5 38 5.5 SSW 4 6 2 3 1022.0 1020.9 0.0
26/05:00am 11.9 8.8 -2.4 37 5.7 SSE 4 7 2 4 1021.9 1020.8 0.0
26/04:30am 12.6 9.1 -2.5 35 6.1 SE 6 15 3 8 1021.8 1020.7 0.0
26/04:00am 13.1 9.7 -2.0 35 6.1 SSW 6 11 3 6 1021.7 1020.6 0.0
26/03:30am 17.2 12.9 -4.7 22 8.8 SE 9 17 5 9 1021.6 1020.5 0.0
26/03:00am 17.4 12.7 -4.7 22 8.9 E 11 13 6 7 1021.6 1020.5 0.0
26/02:30am 17.8 12.8 -4.6 21 9.1 E 13 17 7 9 1021.8 1020.7 0.0
26/02:00am 17.6 12.6 -4.4 22 8.9 E 13 15 7 8 1021.9 1020.8 0.0
26/01:30am 17.7 12.7 -4.4 22 9.0 E 13 15 7 8 1022.1 1021.0 0.0
26/01:00am 16.9 13.0 -4.4 23 8.5 E 7 11 4 6 1022.2 1021.1 0.0
26/12:30am 18.1 13.4 -4.6 21 9.2 E 11 13 6 7 1022.4 1021.2 0.0
26/12:00am 18.6 13.9 -4.8 20 9.5 E 11 15 6 8 1022.4 1021.2 0.0
 
Date/Time
WST
Temp
°C
App
Temp
°C
Dew
Point
Rel
Hum
%
Delta-T
°C
Wind Press
QNH
hPa
Press
MSL
hPa
Rain
since 9 am
mm
Dir
 
Spd
km/h
Gust
km/h
Spd
kts
Gust
kts
25/11:30pm 19.3 14.2 -4.9 19 9.9 E 13 17 7 9 1022.4 1021.2 0.0
25/11:00pm 19.7 14.3 -4.9 18 10.0 E 15 19 8 10 1022.5 1021.3 0.0
25/10:30pm 19.9 14.5 -4.8 18 10.2 E 15 19 8 10 1022.5 1021.3 0.0
25/10:00pm 19.9 14.5 -4.6 18 10.1 E 15 19 8 10 1022.5 1021.3 0.0
25/09:30pm 17.3 13.7 -4.0 23 8.7 E 6 9 3 5 1022.6 1021.4 0.0
25/09:00pm 18.4 15.2 -3.8 22 9.1 E 4 6 2 3 1022.5 1021.3 0.0
25/08:30pm 18.8 15.6 -3.8 21 9.4 E 4 6 2 3 1022.5 1021.3 0.0
25/08:00pm 20.0 16.7 -4.1 19 10.0 ENE 4 6 2 3 1022.4 1021.2 0.0
25/07:30pm 20.5 17.7 -3.7 19 10.2 E 2 6 1 3 1022.0 1020.9 0.0
25/07:00pm 21.3 18.0 -4.0 18 10.7 E 4 6 2 3 1021.7 1020.6 0.0
25/06:30pm 22.1 18.4 -4.5 16 11.2 E 6 7 3 4 1021.4 1020.3 0.0
25/06:00pm 25.4 20.3 -5.0 13 13.1 E 13 22 7 12 1021.1 1020.0 0.0
25/05:30pm 26.9 21.8 -5.3 11 14.0 E 13 19 7 10 1020.6 1019.4 0.0
25/05:00pm 27.9 22.1 -5.0 11 14.5 ENE 17 30 9 16 1020.3 1019.1 0.0
25/04:30pm 28.3 21.5 -5.4 10 14.8 E 22 33 12 18 1019.9 1018.8 0.0
25/04:00pm 28.5 21.3 -5.1 11 14.8 E 24 32 13 17 1019.8 1018.7 0.0
25/03:30pm 28.3 21.5 -5.1 11 14.7 NE 22 35 12 19 1020.2 1019.0 0.0
25/03:00pm 28.6 21.1 -4.6 11 14.8 E 26 35 14 19 1020.2 1019.0 0.0
25/02:30pm 28.8 20.5 -5.4 10 15.1 E 30 43 16 23 1020.3 1019.1 0.0
25/02:00pm 28.8 20.5 -5.0 10 15.0 ENE 30 44 16 24 1020.5 1019.3 0.0
25/01:30pm 28.5 20.6 -4.7 11 14.8 ENE 28 43 15 23 1020.8 1019.6 0.0
25/01:09pm 28.3 19.6 -5.3 11 14.8 ENE 32 50 17 27 1020.9 1019.8 0.0
25/01:00pm 28.4 21.3 -4.4 11 14.6 ENE 24 37 13 20 1021.2 1020.1 0.0

Other Formats:

Comma delimited format used in spreadsheet applications
http://www.bom.gov.au/fwo/IDW60801/IDW60801.99736.axf

JavaScript Object Notation format (JSON) in row-major order
http://www.bom.gov.au/fwo/IDW60801/IDW60801.99736.json